Almalyk, Uzbekistan
Current Conditions -  °F | °C
As of 3:00 PM on Wednesday 26 Nov 2014 (Local Time) from UTTT Reporting Station
Clear Clear  
Wind Chill: 34°   Ceiling: Unl
Heat Index: 39°   Visibility: 6mi
Dew Point: 27°   Wind: 8mph
Humidity: 61%   Direction: 280°W
Pressure: 30.15"   Gusts: NA
Location:  40.84°N, 69.58°E
Report Text: UTTT 261000Z 28007KT CAVOK 04/M03 Q1021 R88/CLRD70 NOSIG
Loading
Personal Weather Stations






























Interactive Weather Map New forecast layout! Learn more

10-Day Weather Forecast

Advertisements
Track Severe Weather on mobile